sensor_id;sensor_type;location;lat;lon;timestamp;P1;durP1;ratioP1;P2;durP2;ratioP2
52268;SDS011;38224;50.950;4.100;2024-01-15T00:01:06;15.67;;;7.77;;
52268;SDS011;38224;50.950;4.100;2024-01-15T00:03:31;14.27;;;6.72;;
52268;SDS011;38224;50.950;4.100;2024-01-15T00:05:57;12.80;;;6.57;;
52268;SDS011;38224;50.950;4.100;2024-01-15T00:08:22;14.27;;;6.67;;
52268;SDS011;38224;50.950;4.100;2024-01-15T00:10:47;14.33;;;6.37;;
52268;SDS011;38224;50.950;4.100;2024-01-15T00:13:12;7.97;;;5.13;;
52268;SDS011;38224;50.950;4.100;2024-01-15T00:15:38;13.47;;;5.90;;
52268;SDS011;38224;50.950;4.100;2024-01-15T00:18:03;14.20;;;5.85;;
52268;SDS011;38224;50.950;4.100;2024-01-15T00:20:28;12.75;;;5.88;;
52268;SDS011;38224;50.950;4.100;2024-01-15T00:22:54;13.00;;;5.43;;
52268;SDS011;38224;50.950;4.100;2024-01-15T00:25:19;7.43;;;4.38;;
52268;SDS011;38224;50.950;4.100;2024-01-15T00:27:44;12.33;;;5.23;;
52268;SDS011;38224;50.950;4.100;2024-01-15T00:30:09;11.07;;;5.13;;
52268;SDS011;38224;50.950;4.100;2024-01-15T00:32:35;13.63;;;4.97;;
52268;SDS011;38224;50.950;4.100;2024-01-15T00:35:00;9.30;;;4.53;;
52268;SDS011;38224;50.950;4.100;2024-01-15T00:37:25;8.63;;;4.47;;
52268;SDS011;38224;50.950;4.100;2024-01-15T00:39:51;14.25;;;4.45;;
52268;SDS011;38224;50.950;4.100;2024-01-15T00:42:16;7.72;;;4.03;;
52268;SDS011;38224;50.950;4.100;2024-01-15T00:44:42;9.10;;;4.20;;
52268;SDS011;38224;50.950;4.100;2024-01-15T00:47:07;7.90;;;3.95;;
52268;SDS011;38224;50.950;4.100;2024-01-15T00:49:32;9.30;;;4.05;;
52268;SDS011;38224;50.950;4.100;2024-01-15T00:51:58;9.18;;;4.30;;
52268;SDS011;38224;50.950;4.100;2024-01-15T00:54:23;6.82;;;3.85;;
52268;SDS011;38224;50.950;4.100;2024-01-15T00:56:48;9.23;;;4.17;;
52268;SDS011;38224;50.950;4.100;2024-01-15T00:59:13;10.23;;;4.90;;
52268;SDS011;38224;50.950;4.100;2024-01-15T01:01:40;8.90;;;4.15;;
52268;SDS011;38224;50.950;4.100;2024-01-15T01:04:07;8.95;;;4.03;;
52268;SDS011;38224;50.950;4.100;2024-01-15T01:06:33;7.43;;;4.50;;
52268;SDS011;38224;50.950;4.100;2024-01-15T01:08:59;5.93;;;3.63;;
52268;SDS011;38224;50.950;4.100;2024-01-15T01:11:24;5.83;;;3.77;;
52268;SDS011;38224;50.950;4.100;2024-01-15T01:13:49;6.07;;;3.93;;
52268;SDS011;38224;50.950;4.100;2024-01-15T01:16:14;16.27;;;6.13;;
52268;SDS011;38224;50.950;4.100;2024-01-15T01:18:39;11.93;;;3.90;;
52268;SDS011;38224;50.950;4.100;2024-01-15T01:21:05;13.90;;;3.70;;
52268;SDS011;38224;50.950;4.100;2024-01-15T01:23:30;9.13;;;4.65;;
52268;SDS011;38224;50.950;4.100;2024-01-15T01:25:55;9.80;;;3.80;;
52268;SDS011;38224;50.950;4.100;2024-01-15T01:28:20;10.00;;;4.33;;
52268;SDS011;38224;50.950;4.100;2024-01-15T01:30:46;8.80;;;3.87;;
52268;SDS011;38224;50.950;4.100;2024-01-15T01:33:11;9.83;;;4.03;;
52268;SDS011;38224;50.950;4.100;2024-01-15T01:35:39;11.52;;;4.38;;
52268;SDS011;38224;50.950;4.100;2024-01-15T01:38:04;7.90;;;4.00;;
52268;SDS011;38224;50.950;4.100;2024-01-15T01:40:29;9.83;;;4.43;;
52268;SDS011;38224;50.950;4.100;2024-01-15T01:42:54;9.32;;;4.55;;
52268;SDS011;38224;50.950;4.100;2024-01-15T01:45:20;9.07;;;4.37;;
52268;SDS011;38224;50.950;4.100;2024-01-15T01:47:45;6.93;;;3.93;;
52268;SDS011;38224;50.950;4.100;2024-01-15T01:50:10;9.32;;;4.10;;
52268;SDS011;38224;50.950;4.100;2024-01-15T01:52:36;8.25;;;4.15;;
52268;SDS011;38224;50.950;4.100;2024-01-15T01:55:02;7.75;;;3.78;;
52268;SDS011;38224;50.950;4.100;2024-01-15T01:57:28;9.85;;;4.32;;
52268;SDS011;38224;50.950;4.100;2024-01-15T01:59:53;11.40;;;4.38;;
52268;SDS011;38224;50.950;4.100;2024-01-15T02:02:19;11.90;;;4.38;;
52268;SDS011;38224;50.950;4.100;2024-01-15T02:04:44;14.20;;;4.35;;
52268;SDS011;38224;50.950;4.100;2024-01-15T02:07:12;17.50;;;4.90;;
52268;SDS011;38224;50.950;4.100;2024-01-15T02:09:37;11.05;;;4.70;;
52268;SDS011;38224;50.950;4.100;2024-01-15T02:12:02;10.03;;;4.40;;
52268;SDS011;38224;50.950;4.100;2024-01-15T02:14:27;17.45;;;5.05;;
52268;SDS011;38224;50.950;4.100;2024-01-15T02:16:53;13.70;;;4.57;;
52268;SDS011;38224;50.950;4.100;2024-01-15T02:19:18;11.03;;;4.33;;
52268;SDS011;38224;50.950;4.100;2024-01-15T02:21:45;11.50;;;3.95;;
52268;SDS011;38224;50.950;4.100;2024-01-15T02:24:11;12.98;;;5.20;;
52268;SDS011;38224;50.950;4.100;2024-01-15T02:26:36;8.35;;;3.92;;
52268;SDS011;38224;50.950;4.100;2024-01-15T02:29:03;8.15;;;4.35;;
52268;SDS011;38224;50.950;4.100;2024-01-15T02:31:31;9.20;;;3.95;;
52268;SDS011;38224;50.950;4.100;2024-01-15T02:33:56;12.23;;;4.05;;
52268;SDS011;38224;50.950;4.100;2024-01-15T02:36:21;6.80;;;3.53;;
52268;SDS011;38224;50.950;4.100;2024-01-15T02:38:49;8.10;;;4.30;;
52268;SDS011;38224;50.950;4.100;2024-01-15T02:41:14;7.83;;;3.73;;
52268;SDS011;38224;50.950;4.100;2024-01-15T02:43:40;9.90;;;4.60;;
52268;SDS011;38224;50.950;4.100;2024-01-15T02:46:05;8.40;;;4.10;;
52268;SDS011;38224;50.950;4.100;2024-01-15T02:48:31;11.10;;;4.55;;
52268;SDS011;38224;50.950;4.100;2024-01-15T02:50:56;10.02;;;4.10;;
52268;SDS011;38224;50.950;4.100;2024-01-15T02:53:21;12.87;;;4.67;;
52268;SDS011;38224;50.950;4.100;2024-01-15T02:55:46;10.67;;;4.30;;
52268;SDS011;38224;50.950;4.100;2024-01-15T02:58:12;12.00;;;3.80;;
52268;SDS011;38224;50.950;4.100;2024-01-15T03:00:37;7.85;;;3.67;;
52268;SDS011;38224;50.950;4.100;2024-01-15T03:03:02;8.93;;;4.27;;
52268;SDS011;38224;50.950;4.100;2024-01-15T03:05:27;10.20;;;4.00;;
52268;SDS011;38224;50.950;4.100;2024-01-15T03:07:53;7.53;;;4.20;;
52268;SDS011;38224;50.950;4.100;2024-01-15T03:10:18;13.37;;;3.97;;
52268;SDS011;38224;50.950;4.100;2024-01-15T03:12:43;7.53;;;3.87;;
52268;SDS011;38224;50.950;4.100;2024-01-15T03:15:08;16.27;;;4.38;;
52268;SDS011;38224;50.950;4.100;2024-01-15T03:17:34;8.25;;;4.32;;
52268;SDS011;38224;50.950;4.100;2024-01-15T03:20:00;10.82;;;4.18;;
52268;SDS011;38224;50.950;4.100;2024-01-15T03:22:25;9.70;;;4.35;;
52268;SDS011;38224;50.950;4.100;2024-01-15T03:24:52;8.73;;;4.50;;
52268;SDS011;38224;50.950;4.100;2024-01-15T03:27:17;8.38;;;4.32;;
52268;SDS011;38224;50.950;4.100;2024-01-15T03:29:42;10.00;;;4.90;;
52268;SDS011;38224;50.950;4.100;2024-01-15T03:32:08;13.07;;;4.23;;
52268;SDS011;38224;50.950;4.100;2024-01-15T03:34:33;15.37;;;4.70;;
52268;SDS011;38224;50.950;4.100;2024-01-15T03:36:58;9.27;;;4.68;;
52268;SDS011;38224;50.950;4.100;2024-01-15T03:39:24;9.85;;;4.50;;
52268;SDS011;38224;50.950;4.100;2024-01-15T03:41:49;8.60;;;4.75;;
52268;SDS011;38224;50.950;4.100;2024-01-15T03:44:14;17.67;;;4.70;;
52268;SDS011;38224;50.950;4.100;2024-01-15T03:46:40;10.87;;;4.23;;
52268;SDS011;38224;50.950;4.100;2024-01-15T03:49:07;6.97;;;3.70;;
52268;SDS011;38224;50.950;4.100;2024-01-15T03:51:32;10.20;;;4.53;;
52268;SDS011;38224;50.950;4.100;2024-01-15T03:53:58;12.15;;;3.72;;
52268;SDS011;38224;50.950;4.100;2024-01-15T03:56:23;12.60;;;4.10;;
52268;SDS011;38224;50.950;4.100;2024-01-15T03:58:48;7.63;;;3.97;;
52268;SDS011;38224;50.950;4.100;2024-01-15T04:01:13;14.10;;;4.43;;
52268;SDS011;38224;50.950;4.100;2024-01-15T04:03:39;10.20;;;4.55;;
52268;SDS011;38224;50.950;4.100;2024-01-15T04:06:04;12.97;;;3.80;;
52268;SDS011;38224;50.950;4.100;2024-01-15T04:08:29;14.07;;;4.68;;
52268;SDS011;38224;50.950;4.100;2024-01-15T04:10:55;20.47;;;4.83;;
52268;SDS011;38224;50.950;4.100;2024-01-15T04:13:20;18.60;;;4.97;;
52268;SDS011;38224;50.950;4.100;2024-01-15T04:15:46;12.73;;;4.00;;
52268;SDS011;38224;50.950;4.100;2024-01-15T04:18:11;14.00;;;3.60;;
52268;SDS011;38224;50.950;4.100;2024-01-15T04:20:36;11.90;;;4.10;;
52268;SDS011;38224;50.950;4.100;2024-01-15T04:23:01;16.95;;;3.72;;
52268;SDS011;38224;50.950;4.100;2024-01-15T04:25:27;10.60;;;3.65;;
52268;SDS011;38224;50.950;4.100;2024-01-15T04:27:52;9.87;;;2.97;;
52268;SDS011;38224;50.950;4.100;2024-01-15T04:30:20;9.47;;;3.03;;
52268;SDS011;38224;50.950;4.100;2024-01-15T04:32:45;9.38;;;3.20;;
52268;SDS011;38224;50.950;4.100;2024-01-15T04:35:10;11.33;;;4.93;;
52268;SDS011;38224;50.950;4.100;2024-01-15T04:37:35;10.23;;;2.60;;
52268;SDS011;38224;50.950;4.100;2024-01-15T04:40:01;7.30;;;2.87;;
52268;SDS011;38224;50.950;4.100;2024-01-15T04:42:28;7.53;;;2.30;;
52268;SDS011;38224;50.950;4.100;2024-01-15T04:44:54;5.70;;;2.03;;
52268;SDS011;38224;50.950;4.100;2024-01-15T04:47:19;7.23;;;2.17;;
52268;SDS011;38224;50.950;4.100;2024-01-15T04:49:44;10.65;;;2.28;;
52268;SDS011;38224;50.950;4.100;2024-01-15T04:52:09;7.83;;;1.57;;
52268;SDS011;38224;50.950;4.100;2024-01-15T04:54:35;4.57;;;1.77;;
52268;SDS011;38224;50.950;4.100;2024-01-15T04:57:00;7.57;;;1.95;;
52268;SDS011;38224;50.950;4.100;2024-01-15T04:59:26;5.60;;;1.70;;
52268;SDS011;38224;50.950;4.100;2024-01-15T05:01:51;7.15;;;2.00;;
52268;SDS011;38224;50.950;4.100;2024-01-15T05:04:16;13.10;;;4.50;;
52268;SDS011;38224;50.950;4.100;2024-01-15T05:06:41;14.50;;;3.42;;
52268;SDS011;38224;50.950;4.100;2024-01-15T05:09:07;7.33;;;1.87;;
52268;SDS011;38224;50.950;4.100;2024-01-15T05:11:32;3.47;;;1.57;;
52268;SDS011;38224;50.950;4.100;2024-01-15T05:13:57;7.88;;;2.17;;
52268;SDS011;38224;50.950;4.100;2024-01-15T05:16:24;7.32;;;2.35;;
52268;SDS011;38224;50.950;4.100;2024-01-15T05:18:50;9.23;;;2.33;;
52268;SDS011;38224;50.950;4.100;2024-01-15T05:21:15;12.68;;;2.15;;
52268;SDS011;38224;50.950;4.100;2024-01-15T05:23:40;6.97;;;2.05;;
52268;SDS011;38224;50.950;4.100;2024-01-15T05:26:06;5.40;;;1.75;;
52268;SDS011;38224;50.950;4.100;2024-01-15T05:28:31;7.72;;;1.75;;
52268;SDS011;38224;50.950;4.100;2024-01-15T05:30:56;7.90;;;1.80;;
52268;SDS011;38224;50.950;4.100;2024-01-15T05:33:23;10.38;;;3.63;;
52268;SDS011;38224;50.950;4.100;2024-01-15T05:35:48;6.88;;;2.40;;
52268;SDS011;38224;50.950;4.100;2024-01-15T05:38:15;9.85;;;2.30;;
52268;SDS011;38224;50.950;4.100;2024-01-15T05:40:40;3.73;;;1.50;;
52268;SDS011;38224;50.950;4.100;2024-01-15T05:43:05;9.88;;;1.67;;
52268;SDS011;38224;50.950;4.100;2024-01-15T05:45:31;9.37;;;2.20;;
52268;SDS011;38224;50.950;4.100;2024-01-15T05:47:56;17.23;;;2.88;;
52268;SDS011;38224;50.950;4.100;2024-01-15T05:50:21;8.73;;;1.90;;
52268;SDS011;38224;50.950;4.100;2024-01-15T05:52:47;8.50;;;2.10;;
52268;SDS011;38224;50.950;4.100;2024-01-15T05:55:12;8.05;;;2.60;;
52268;SDS011;38224;50.950;4.100;2024-01-15T05:57:37;6.35;;;1.92;;
52268;SDS011;38224;50.950;4.100;2024-01-15T06:00:03;8.87;;;1.83;;
52268;SDS011;38224;50.950;4.100;2024-01-15T06:02:28;6.18;;;2.35;;
52268;SDS011;38224;50.950;4.100;2024-01-15T06:04:54;9.00;;;1.90;;
52268;SDS011;38224;50.950;4.100;2024-01-15T06:07:19;9.73;;;2.40;;
52268;SDS011;38224;50.950;4.100;2024-01-15T06:09:44;5.57;;;2.40;;
52268;SDS011;38224;50.950;4.100;2024-01-15T06:12:10;9.85;;;2.70;;
52268;SDS011;38224;50.950;4.100;2024-01-15T06:14:35;8.60;;;2.95;;
52268;SDS011;38224;50.950;4.100;2024-01-15T06:17:00;13.35;;;3.13;;
52268;SDS011;38224;50.950;4.100;2024-01-15T06:19:26;13.20;;;3.58;;
52268;SDS011;38224;50.950;4.100;2024-01-15T06:21:51;12.15;;;3.03;;
52268;SDS011;38224;50.950;4.100;2024-01-15T06:24:16;11.00;;;3.70;;
52268;SDS011;38224;50.950;4.100;2024-01-15T06:26:44;12.23;;;3.10;;
52268;SDS011;38224;50.950;4.100;2024-01-15T06:29:09;12.35;;;2.72;;
52268;SDS011;38224;50.950;4.100;2024-01-15T06:31:34;10.07;;;2.83;;
52268;SDS011;38224;50.950;4.100;2024-01-15T06:33:59;11.17;;;2.93;;
52268;SDS011;38224;50.950;4.100;2024-01-15T06:36:25;8.37;;;2.50;;
52268;SDS011;38224;50.950;4.100;2024-01-15T06:38:50;5.97;;;2.47;;
52268;SDS011;38224;50.950;4.100;2024-01-15T06:41:15;11.27;;;2.73;;
52268;SDS011;38224;50.950;4.100;2024-01-15T06:43:40;11.33;;;2.83;;
52268;SDS011;38224;50.950;4.100;2024-01-15T06:46:06;10.70;;;3.17;;
52268;SDS011;38224;50.950;4.100;2024-01-15T06:48:31;12.23;;;3.15;;
52268;SDS011;38224;50.950;4.100;2024-01-15T06:50:56;13.50;;;2.93;;
52268;SDS011;38224;50.950;4.100;2024-01-15T06:53:21;8.80;;;3.27;;
52268;SDS011;38224;50.950;4.100;2024-01-15T06:55:47;9.60;;;4.10;;
52268;SDS011;38224;50.950;4.100;2024-01-15T06:58:12;8.52;;;2.65;;
52268;SDS011;38224;50.950;4.100;2024-01-15T07:00:37;9.37;;;2.53;;
52268;SDS011;38224;50.950;4.100;2024-01-15T07:03:03;7.20;;;2.70;;
52268;SDS011;38224;50.950;4.100;2024-01-15T07:05:28;21.90;;;6.95;;
52268;SDS011;38224;50.950;4.100;2024-01-15T07:07:55;11.85;;;3.15;;
52268;SDS011;38224;50.950;4.100;2024-01-15T07:10:20;38.50;;;5.32;;
52268;SDS011;38224;50.950;4.100;2024-01-15T07:12:45;14.90;;;3.55;;
52268;SDS011;38224;50.950;4.100;2024-01-15T07:15:11;8.63;;;2.37;;
52268;SDS011;38224;50.950;4.100;2024-01-15T07:17:36;9.63;;;2.70;;
52268;SDS011;38224;50.950;4.100;2024-01-15T07:20:05;11.27;;;2.55;;
52268;SDS011;38224;50.950;4.100;2024-01-15T07:22:33;10.95;;;2.78;;
52268;SDS011;38224;50.950;4.100;2024-01-15T07:24:58;10.15;;;2.58;;
52268;SDS011;38224;50.950;4.100;2024-01-15T07:27:23;9.60;;;2.90;;
52268;SDS011;38224;50.950;4.100;2024-01-15T07:29:49;14.07;;;2.67;;
52268;SDS011;38224;50.950;4.100;2024-01-15T07:32:14;8.73;;;3.10;;
52268;SDS011;38224;50.950;4.100;2024-01-15T07:34:40;18.98;;;2.22;;
52268;SDS011;38224;50.950;4.100;2024-01-15T07:37:05;12.40;;;3.17;;
52268;SDS011;38224;50.950;4.100;2024-01-15T07:39:30;14.53;;;2.50;;
52268;SDS011;38224;50.950;4.100;2024-01-15T07:41:56;13.18;;;3.03;;
52268;SDS011;38224;50.950;4.100;2024-01-15T07:44:21;13.38;;;2.97;;
52268;SDS011;38224;50.950;4.100;2024-01-15T07:46:46;17.30;;;3.55;;
52268;SDS011;38224;50.950;4.100;2024-01-15T07:49:12;20.95;;;3.00;;
52268;SDS011;38224;50.950;4.100;2024-01-15T07:51:37;9.90;;;2.60;;
52268;SDS011;38224;50.950;4.100;2024-01-15T07:54:03;15.75;;;2.95;;
52268;SDS011;38224;50.950;4.100;2024-01-15T07:56:29;15.15;;;3.15;;
52268;SDS011;38224;50.950;4.100;2024-01-15T07:58:54;7.78;;;2.60;;
52268;SDS011;38224;50.950;4.100;2024-01-15T08:01:19;19.20;;;2.80;;
52268;SDS011;38224;50.950;4.100;2024-01-15T08:03:45;9.50;;;2.67;;
52268;SDS011;38224;50.950;4.100;2024-01-15T08:06:10;13.53;;;3.07;;
52268;SDS011;38224;50.950;4.100;2024-01-15T08:08:35;12.55;;;3.05;;
52268;SDS011;38224;50.950;4.100;2024-01-15T08:11:01;11.43;;;2.25;;
52268;SDS011;38224;50.950;4.100;2024-01-15T08:13:26;10.77;;;2.97;;
52268;SDS011;38224;50.950;4.100;2024-01-15T08:15:54;10.15;;;3.10;;
52268;SDS011;38224;50.950;4.100;2024-01-15T08:18:19;12.97;;;2.97;;
52268;SDS011;38224;50.950;4.100;2024-01-15T08:20:46;9.63;;;2.83;;
52268;SDS011;38224;50.950;4.100;2024-01-15T08:23:11;11.00;;;2.75;;
52268;SDS011;38224;50.950;4.100;2024-01-15T08:25:37;12.00;;;2.77;;
52268;SDS011;38224;50.950;4.100;2024-01-15T08:28:02;11.20;;;2.80;;
52268;SDS011;38224;50.950;4.100;2024-01-15T08:49:15;11.18;;;3.38;;
52268;SDS011;38224;50.950;4.100;2024-01-15T08:51:41;12.73;;;2.85;;
52268;SDS011;38224;50.950;4.100;2024-01-15T08:54:06;8.40;;;2.67;;
52268;SDS011;38224;50.950;4.100;2024-01-15T08:56:33;19.60;;;3.55;;
52268;SDS011;38224;50.950;4.100;2024-01-15T08:58:59;11.93;;;2.92;;
52268;SDS011;38224;50.950;4.100;2024-01-15T09:01:24;12.73;;;3.05;;
52268;SDS011;38224;50.950;4.100;2024-01-15T09:03:49;8.50;;;2.17;;
52268;SDS011;38224;50.950;4.100;2024-01-15T09:06:15;8.77;;;2.78;;
52268;SDS011;38224;50.950;4.100;2024-01-15T09:08:40;10.48;;;2.67;;
52268;SDS011;38224;50.950;4.100;2024-01-15T09:11:06;9.60;;;2.78;;
52268;SDS011;38224;50.950;4.100;2024-01-15T09:13:31;11.75;;;2.92;;
52268;SDS011;38224;50.950;4.100;2024-01-15T09:15:56;17.85;;;3.67;;
52268;SDS011;38224;50.950;4.100;2024-01-15T09:18:22;16.92;;;3.90;;
52268;SDS011;38224;50.950;4.100;2024-01-15T09:20:47;24.40;;;4.22;;
52268;SDS011;38224;50.950;4.100;2024-01-15T09:23:13;10.18;;;2.60;;
52268;SDS011;38224;50.950;4.100;2024-01-15T09:25:38;10.77;;;2.53;;
52268;SDS011;38224;50.950;4.100;2024-01-15T09:28:03;9.20;;;3.10;;
52268;SDS011;38224;50.950;4.100;2024-01-15T09:30:29;10.82;;;2.47;;
52268;SDS011;38224;50.950;4.100;2024-01-15T09:32:54;13.38;;;2.78;;
52268;SDS011;38224;50.950;4.100;2024-01-15T09:35:22;9.88;;;2.53;;
52268;SDS011;38224;50.950;4.100;2024-01-15T09:37:54;17.10;;;2.72;;
52268;SDS011;38224;50.950;4.100;2024-01-15T09:40:27;11.18;;;2.63;;
52268;SDS011;38224;50.950;4.100;2024-01-15T09:43:06;7.95;;;2.40;;
52268;SDS011;38224;50.950;4.100;2024-01-15T09:45:42;8.73;;;2.30;;
52268;SDS011;38224;50.950;4.100;2024-01-15T09:48:15;9.98;;;2.90;;
52268;SDS011;38224;50.950;4.100;2024-01-15T09:50:51;7.85;;;2.40;;
52268;SDS011;38224;50.950;4.100;2024-01-15T09:53:22;13.13;;;2.70;;
52268;SDS011;38224;50.950;4.100;2024-01-15T09:55:57;12.63;;;2.85;;
52268;SDS011;38224;50.950;4.100;2024-01-15T09:58:31;11.88;;;3.03;;
52268;SDS011;38224;50.950;4.100;2024-01-15T10:01:05;15.00;;;2.92;;
52268;SDS011;38224;50.950;4.100;2024-01-15T10:03:51;7.53;;;2.30;;
52268;SDS011;38224;50.950;4.100;2024-01-15T10:06:45;9.98;;;2.22;;
52268;SDS011;38224;50.950;4.100;2024-01-15T10:09:24;7.50;;;2.08;;
52268;SDS011;38224;50.950;4.100;2024-01-15T10:17:52;14.10;;;3.22;;
52268;SDS011;38224;50.950;4.100;2024-01-15T10:20:17;12.32;;;2.58;;
52268;SDS011;38224;50.950;4.100;2024-01-15T10:22:42;11.45;;;2.42;;
52268;SDS011;38224;50.950;4.100;2024-01-15T10:25:09;12.93;;;2.33;;
52268;SDS011;38224;50.950;4.100;2024-01-15T10:27:35;12.13;;;2.30;;
52268;SDS011;38224;50.950;4.100;2024-01-15T10:30:00;9.37;;;2.40;;
52268;SDS011;38224;50.950;4.100;2024-01-15T10:32:27;8.05;;;2.55;;
52268;SDS011;38224;50.950;4.100;2024-01-15T10:34:52;7.47;;;2.28;;
52268;SDS011;38224;50.950;4.100;2024-01-15T10:37:17;10.53;;;2.23;;
52268;SDS011;38224;50.950;4.100;2024-01-15T10:39:43;9.07;;;2.17;;
52268;SDS011;38224;50.950;4.100;2024-01-15T10:42:09;4.97;;;2.22;;
52268;SDS011;38224;50.950;4.100;2024-01-15T10:44:34;12.40;;;2.60;;
52268;SDS011;38224;50.950;4.100;2024-01-15T10:47:00;13.52;;;2.22;;
52268;SDS011;38224;50.950;4.100;2024-01-15T10:49:25;10.10;;;2.30;;
52268;SDS011;38224;50.950;4.100;2024-01-15T10:51:52;9.77;;;2.00;;
52268;SDS011;38224;50.950;4.100;2024-01-15T10:54:18;29.48;;;3.75;;
52268;SDS011;38224;50.950;4.100;2024-01-15T10:56:44;13.60;;;2.33;;
52268;SDS011;38224;50.950;4.100;2024-01-15T10:59:10;7.22;;;1.98;;
52268;SDS011;38224;50.950;4.100;2024-01-15T11:01:36;8.98;;;2.38;;
52268;SDS011;38224;50.950;4.100;2024-01-15T11:04:02;10.70;;;2.08;;
52268;SDS011;38224;50.950;4.100;2024-01-15T11:06:27;6.82;;;2.03;;
52268;SDS011;38224;50.950;4.100;2024-01-15T11:08:53;14.02;;;2.47;;
52268;SDS011;38224;50.950;4.100;2024-01-15T11:11:22;8.60;;;2.08;;
52268;SDS011;38224;50.950;4.100;2024-01-15T11:13:48;11.55;;;2.05;;
52268;SDS011;38224;50.950;4.100;2024-01-15T11:16:17;8.00;;;1.98;;
52268;SDS011;38224;50.950;4.100;2024-01-15T11:18:43;8.50;;;2.17;;
52268;SDS011;38224;50.950;4.100;2024-01-15T11:26:27;13.68;;;2.00;;
52268;SDS011;38224;50.950;4.100;2024-01-15T11:28:53;9.77;;;1.95;;
52268;SDS011;38224;50.950;4.100;2024-01-15T11:31:19;12.05;;;2.78;;
52268;SDS011;38224;50.950;4.100;2024-01-15T11:33:50;6.07;;;2.10;;
52268;SDS011;38224;50.950;4.100;2024-01-15T11:36:16;3.88;;;1.77;;
52268;SDS011;38224;50.950;4.100;2024-01-15T11:38:41;9.53;;;1.80;;
52268;SDS011;38224;50.950;4.100;2024-01-15T11:41:13;11.77;;;1.97;;
52268;SDS011;38224;50.950;4.100;2024-01-15T11:43:39;4.95;;;1.90;;
52268;SDS011;38224;50.950;4.100;2024-01-15T11:46:05;6.17;;;1.73;;
52268;SDS011;38224;50.950;4.100;2024-01-15T11:48:38;9.88;;;2.90;;
52268;SDS011;38224;50.950;4.100;2024-01-15T11:53:32;11.07;;;2.28;;
52268;SDS011;38224;50.950;4.100;2024-01-15T11:56:01;9.63;;;1.70;;
52268;SDS011;38224;50.950;4.100;2024-01-15T11:58:27;14.85;;;2.60;;
52268;SDS011;38224;50.950;4.100;2024-01-15T12:00:52;6.55;;;1.73;;
52268;SDS011;38224;50.950;4.100;2024-01-15T12:03:20;7.77;;;2.00;;
52268;SDS011;38224;50.950;4.100;2024-01-15T12:05:45;14.68;;;2.75;;
52268;SDS011;38224;50.950;4.100;2024-01-15T12:08:11;8.97;;;2.13;;
52268;SDS011;38224;50.950;4.100;2024-01-15T12:10:37;9.15;;;2.25;;
52268;SDS011;38224;50.950;4.100;2024-01-15T12:15:31;10.95;;;2.80;;
52268;SDS011;38224;50.950;4.100;2024-01-15T12:17:57;15.77;;;3.15;;
52268;SDS011;38224;50.950;4.100;2024-01-15T12:20:26;6.00;;;1.60;;
52268;SDS011;38224;50.950;4.100;2024-01-15T12:22:51;18.50;;;2.60;;
52268;SDS011;38224;50.950;4.100;2024-01-15T12:25:17;15.00;;;2.28;;
52268;SDS011;38224;50.950;4.100;2024-01-15T12:27:42;14.52;;;2.15;;
52268;SDS011;38224;50.950;4.100;2024-01-15T12:30:10;11.70;;;2.10;;
52268;SDS011;38224;50.950;4.100;2024-01-15T12:32:35;5.95;;;1.83;;
52268;SDS011;38224;50.950;4.100;2024-01-15T12:35:01;11.68;;;2.47;;
52268;SDS011;38224;50.950;4.100;2024-01-15T12:37:26;13.90;;;2.10;;
52268;SDS011;38224;50.950;4.100;2024-01-15T12:39:52;12.13;;;2.00;;
52268;SDS011;38224;50.950;4.100;2024-01-15T12:42:17;11.65;;;1.88;;
52268;SDS011;38224;50.950;4.100;2024-01-15T12:44:43;13.70;;;2.50;;
52268;SDS011;38224;50.950;4.100;2024-01-15T12:47:09;14.85;;;2.60;;
52268;SDS011;38224;50.950;4.100;2024-01-15T12:49:36;19.10;;;3.47;;
52268;SDS011;38224;50.950;4.100;2024-01-15T12:52:01;22.42;;;4.63;;
52268;SDS011;38224;50.950;4.100;2024-01-15T12:54:26;13.25;;;2.25;;
52268;SDS011;38224;50.950;4.100;2024-01-15T12:56:52;6.80;;;2.43;;
52268;SDS011;38224;50.950;4.100;2024-01-15T12:59:18;14.07;;;3.08;;
52268;SDS011;38224;50.950;4.100;2024-01-15T13:01:43;12.85;;;1.85;;
52268;SDS011;38224;50.950;4.100;2024-01-15T13:04:08;17.73;;;2.45;;
52268;SDS011;38224;50.950;4.100;2024-01-15T13:06:34;16.77;;;2.43;;
52268;SDS011;38224;50.950;4.100;2024-01-15T13:09:00;15.07;;;2.75;;
52268;SDS011;38224;50.950;4.100;2024-01-15T13:11:25;12.45;;;2.30;;
52268;SDS011;38224;50.950;4.100;2024-01-15T13:13:50;16.38;;;3.47;;
52268;SDS011;38224;50.950;4.100;2024-01-15T13:16:16;18.00;;;2.42;;
52268;SDS011;38224;50.950;4.100;2024-01-15T13:18:41;114.30;;;9.57;;
52268;SDS011;38224;50.950;4.100;2024-01-15T13:21:06;20.42;;;2.55;;
52268;SDS011;38224;50.950;4.100;2024-01-15T13:23:31;9.20;;;2.53;;
52268;SDS011;38224;50.950;4.100;2024-01-15T13:25:57;14.88;;;2.80;;
52268;SDS011;38224;50.950;4.100;2024-01-15T13:28:23;11.82;;;2.67;;
52268;SDS011;38224;50.950;4.100;2024-01-15T13:30:48;13.18;;;2.97;;
52268;SDS011;38224;50.950;4.100;2024-01-15T13:33:13;9.82;;;2.20;;
52268;SDS011;38224;50.950;4.100;2024-01-15T13:35:39;8.60;;;2.13;;
52268;SDS011;38224;50.950;4.100;2024-01-15T13:38:04;11.57;;;2.43;;
52268;SDS011;38224;50.950;4.100;2024-01-15T13:40:29;14.93;;;4.05;;
52268;SDS011;38224;50.950;4.100;2024-01-15T13:42:54;17.45;;;4.70;;
52268;SDS011;38224;50.950;4.100;2024-01-15T13:45:20;13.07;;;2.65;;
52268;SDS011;38224;50.950;4.100;2024-01-15T13:47:45;8.27;;;2.47;;
52268;SDS011;38224;50.950;4.100;2024-01-15T13:50:10;15.00;;;2.83;;
52268;SDS011;38224;50.950;4.100;2024-01-15T13:52:36;10.38;;;2.70;;
52268;SDS011;38224;50.950;4.100;2024-01-15T13:55:01;7.65;;;2.45;;
52268;SDS011;38224;50.950;4.100;2024-01-15T13:57:26;10.13;;;2.33;;
52268;SDS011;38224;50.950;4.100;2024-01-15T13:59:52;14.95;;;2.45;;
52268;SDS011;38224;50.950;4.100;2024-01-15T14:02:17;11.05;;;2.20;;
52268;SDS011;38224;50.950;4.100;2024-01-15T14:04:42;11.40;;;2.67;;
52268;SDS011;38224;50.950;4.100;2024-01-15T14:07:08;8.20;;;2.30;;
52268;SDS011;38224;50.950;4.100;2024-01-15T14:09:33;6.88;;;2.33;;
52268;SDS011;38224;50.950;4.100;2024-01-15T14:11:59;9.73;;;1.87;;
52268;SDS011;38224;50.950;4.100;2024-01-15T14:14:24;13.52;;;2.30;;
52268;SDS011;38224;50.950;4.100;2024-01-15T14:16:49;8.23;;;1.70;;
52268;SDS011;38224;50.950;4.100;2024-01-15T14:19:15;12.60;;;2.78;;
52268;SDS011;38224;50.950;4.100;2024-01-15T14:21:40;11.18;;;3.80;;
52268;SDS011;38224;50.950;4.100;2024-01-15T14:24:05;8.48;;;1.85;;
52268;SDS011;38224;50.950;4.100;2024-01-15T14:26:31;4.93;;;1.30;;
52268;SDS011;38224;50.950;4.100;2024-01-15T14:28:56;8.05;;;1.90;;
52268;SDS011;38224;50.950;4.100;2024-01-15T14:31:23;6.32;;;1.60;;
52268;SDS011;38224;50.950;4.100;2024-01-15T14:33:51;9.93;;;4.57;;
52268;SDS011;38224;50.950;4.100;2024-01-15T14:36:16;6.60;;;1.52;;
52268;SDS011;38224;50.950;4.100;2024-01-15T14:38:41;9.43;;;1.60;;
52268;SDS011;38224;50.950;4.100;2024-01-15T14:41:06;6.57;;;1.63;;
52268;SDS011;38224;50.950;4.100;2024-01-15T14:43:32;3.03;;;1.37;;
52268;SDS011;38224;50.950;4.100;2024-01-15T14:45:58;4.82;;;1.65;;
52268;SDS011;38224;50.950;4.100;2024-01-15T14:48:23;6.38;;;1.17;;
52268;SDS011;38224;50.950;4.100;2024-01-15T14:50:48;5.80;;;1.50;;
52268;SDS011;38224;50.950;4.100;2024-01-15T14:53:15;3.47;;;1.38;;
52268;SDS011;38224;50.950;4.100;2024-01-15T14:55:40;4.07;;;1.23;;
52268;SDS011;38224;50.950;4.100;2024-01-15T14:58:05;4.57;;;1.30;;
52268;SDS011;38224;50.950;4.100;2024-01-15T15:00:31;7.17;;;2.53;;
52268;SDS011;38224;50.950;4.100;2024-01-15T15:02:56;7.23;;;2.00;;
52268;SDS011;38224;50.950;4.100;2024-01-15T15:05:21;6.47;;;1.80;;
52268;SDS011;38224;50.950;4.100;2024-01-15T15:07:46;9.05;;;2.10;;